Time;durP1;ratioP1;P1;durP2;ratioP2;P2;SDS_P1;SDS_P2;PMS_P1;PMS_P2;Temp;Humidity;BMP_temperature;BMP_pressure;BME280_temperature;BME280_humidity;BME280_pressure;Samples;Min_cycle;Max_cycle;Signal;HPM_P1;HPM_P2
2022/02/12 00:02:27;;;;;;;2.40;1.37;;;;;;;-145.06;0.00;60892.56;4826480;28;20033;-89
2022/02/12 00:05:07;;;;;;;1.90;1.33;;;;;;;-145.06;0.00;60892.56;4841195;28;20050;-89
2022/02/12 00:07:46;;;;;;;2.05;1.05;;;;;;;-145.06;0.00;60892.56;4836508;28;20033;-88
2022/02/12 00:10:28;;;;;;;2.60;1.30;;;;;;;-145.06;0.00;60892.56;4838814;28;20033;-89
2022/02/12 00:13:11;;;;;;;2.40;1.30;;;;;;;-145.06;0.00;60892.56;4841887;28;20042;-89
2022/02/12 00:15:50;;;;;;;2.53;1.33;;;;;;;-145.06;0.00;60892.56;4834025;28;20025;-90
2022/02/12 00:18:29;;;;;;;3.73;1.60;;;;;;;-145.06;0.00;60892.56;4837880;28;20038;-89
2022/02/12 00:21:08;;;;;;;2.22;1.33;;;;;;;-145.06;0.00;60892.56;4841073;28;20830;-89
2022/02/12 00:23:47;;;;;;;2.53;1.50;;;;;;;-145.06;0.00;60892.56;4853164;28;20042;-89
2022/02/12 00:26:27;;;;;;;2.97;1.33;;;;;;;-145.06;0.00;60892.56;4829646;28;20030;-89
2022/02/12 00:29:07;;;;;;;2.58;1.35;;;;;;;-145.06;0.00;60892.56;4833764;28;20030;-89
2022/02/12 00:31:45;;;;;;;;;;;;;;;-145.06;0.00;60892.56;4822063;28;20030;-90
2022/02/12 00:34:25;;;;;;;1.50;0.93;;;;;;;-145.06;0.00;60892.56;4837782;28;19917;-89
2022/02/12 00:37:04;;;;;;;2.40;1.00;;;;;;;-145.06;0.00;60892.56;4829017;28;20037;-90
2022/02/12 00:39:43;;;;;;;2.25;1.13;;;;;;;-145.06;0.00;60892.56;4830932;28;20066;-89
2022/02/12 00:42:22;;;;;;;2.00;1.25;;;;;;;-145.06;0.00;60892.56;4832060;28;20057;-88
2022/02/12 00:45:02;;;;;;;2.60;1.20;;;;;;;-145.06;0.00;60892.56;4836465;28;20041;-87
2022/02/12 00:47:41;;;;;;;2.00;1.13;;;;;;;-145.06;0.00;60892.56;4824514;28;20083;-87
2022/02/12 00:50:20;;;;;;;1.88;1.00;;;;;;;-145.06;0.00;60892.56;4836230;28;20038;-89
2022/02/12 00:52:59;;;;;;;3.53;1.35;;;;;;;-145.06;0.00;60892.56;4840962;28;20138;-89
2022/02/12 00:55:38;;;;;;;3.17;1.27;;;;;;;-145.06;0.00;60892.56;4838223;28;20073;-89
2022/02/12 00:58:18;;;;;;;2.47;1.23;;;;;;;-145.06;0.00;60892.56;4834741;28;20300;-87
2022/02/12 01:00:56;;;;;;;4.40;1.50;;;;;;;-145.06;0.00;60892.56;4837133;28;20606;-87
2022/02/12 01:03:35;;;;;;;2.30;1.27;;;;;;;-145.06;0.00;60892.56;4822589;28;20065;-90
2022/02/12 01:06:14;;;;;;;2.90;1.37;;;;;;;-145.06;0.00;60892.56;4831778;28;20030;-89
2022/02/12 01:08:53;;;;;;;2.15;1.20;;;;;;;10.68;0.00;60892.56;4835747;28;20034;-87
2022/02/12 01:11:32;;;;;;;3.55;1.40;;;;;;;-145.06;0.00;60892.56;4826820;28;20050;-87
2022/02/12 01:14:12;;;;;;;2.78;1.02;;;;;;;-145.06;0.00;60892.56;4819916;28;20066;-90
2022/02/12 01:16:51;;;;;;;3.55;1.30;;;;;;;-145.06;0.00;60892.56;4835162;28;20034;-87
2022/02/12 01:19:30;;;;;;;2.73;1.17;;;;;;;-145.06;0.00;60892.56;4836809;28;20030;-86
2022/02/12 01:22:09;;;;;;;2.28;1.10;;;;;;;-145.06;0.00;60892.56;4851712;28;20273;-88
2022/02/12 01:24:48;;;;;;;1.77;1.00;;;;;;;-145.06;0.00;60892.56;4832336;28;20496;-89
2022/02/12 01:27:26;;;;;;;2.70;1.25;;;;;;;-145.06;0.00;60892.56;4837474;28;20065;-89
2022/02/12 01:30:07;;;;;;;4.70;1.20;;;;;;;-145.06;0.00;60892.56;4841071;28;20033;-89
2022/02/12 01:32:46;;;;;;;1.88;0.80;;;;;;;-145.06;0.00;60892.56;4840014;28;20038;-88
2022/02/12 01:35:25;;;;;;;1.45;1.05;;;;;;;-145.06;0.00;60892.56;4844918;28;20070;-89
2022/02/12 01:38:04;;;;;;;1.25;1.08;;;;;;;-145.06;0.00;60892.56;4833282;28;20488;-89
2022/02/12 01:40:45;;;;;;;1.85;1.10;;;;;;;-145.06;0.00;60892.56;4846567;28;20365;-89
2022/02/12 01:43:24;;;;;;;2.55;1.13;;;;;;;-145.06;0.00;60892.56;4833193;28;20029;-89
2022/02/12 01:46:03;;;;;;;1.97;1.10;;;;;;;-145.06;0.00;60892.56;4839825;28;20357;-88
2022/02/12 01:48:44;;;;;;;3.90;1.23;;;;;;;-145.06;0.00;60892.56;4839624;28;20373;-88
2022/02/12 01:51:23;;;;;;;1.92;1.10;;;;;;;-145.06;0.00;60892.56;4839037;28;20364;-89
2022/02/12 01:54:03;;;;;;;2.05;1.05;;;;;;;-145.06;0.00;60892.56;4849148;28;20026;-89
2022/02/12 01:56:44;;;;;;;4.78;1.20;;;;;;;-145.06;0.00;60892.56;4840540;28;20492;-89
2022/02/12 01:59:24;;;;;;;2.08;1.02;;;;;;;-145.06;0.00;60892.56;4840013;28;20108;-90
2022/02/12 02:02:04;;;;;;;2.45;1.08;;;;;;;-145.06;0.00;60892.56;4860925;28;20547;-88
2022/02/12 02:04:43;;;;;;;2.30;0.93;;;;;;;-145.06;0.00;60892.56;4820053;28;20109;-88
2022/02/12 02:07:22;;;;;;;1.45;1.00;;;;;;;-145.06;0.00;60892.56;4840462;28;20041;-89
2022/02/12 02:10:03;;;;;;;1.05;0.90;;;;;;;-145.06;0.00;60892.56;4838539;28;20496;-90
2022/02/12 02:12:42;;;;;;;2.10;0.93;;;;;;;-145.06;0.00;60892.56;4840964;28;20361;-88
2022/02/12 02:15:21;;;;;;;2.67;1.15;;;;;;;-145.06;0.00;60892.56;4829922;28;20077;-89
2022/02/12 02:18:00;;;;;;;1.90;1.23;;;;;;;-145.06;0.00;60892.56;4838627;28;20069;-90
2022/02/12 02:20:40;;;;;;;2.22;0.93;;;;;;;-145.06;0.00;60892.56;4852848;28;20476;-89
2022/02/12 02:23:18;;;;;;;1.45;0.70;;;;;;;-145.06;0.00;60892.56;4838102;28;20041;-89
2022/02/12 02:25:59;;;;;;;2.28;1.40;;;;;;;-145.06;0.00;60892.56;4846141;28;20037;-89
2022/02/12 02:28:38;;;;;;;3.83;1.00;;;;;;;-145.06;0.00;60892.56;4831553;28;20038;-89
2022/02/12 02:31:17;;;;;;;1.80;0.80;;;;;;;-145.06;0.00;60892.56;4839174;28;20025;-89
2022/02/12 02:33:55;;;;;;;1.60;0.83;;;;;;;-145.06;0.00;60892.56;4833642;28;20034;-89
2022/02/12 02:36:35;;;;;;;1.55;0.70;;;;;;;-145.06;0.00;60892.56;4850119;28;20034;-89
2022/02/12 02:39:14;;;;;;;2.15;1.08;;;;;;;-145.06;0.00;60892.56;4847524;28;20033;-90
2022/02/12 02:41:53;;;;;;;2.13;0.85;;;;;;;-145.06;0.00;60892.56;4851195;28;20369;-89
2022/02/12 02:44:32;;;;;;;1.45;0.90;;;;;;;-145.06;0.00;60892.56;4838402;28;20045;-89
2022/02/12 02:56:15;;;;;;;3.47;1.02;;;;;;;-145.06;0.00;60892.56;4837662;28;20484;-89
2022/02/12 02:58:55;;;;;;;3.03;0.75;;;;;;;-145.06;0.00;60892.56;4835207;28;20029;-89
2022/02/12 03:01:36;;;;;;;1.67;0.75;;;;;;;-145.06;0.00;60892.56;4854253;28;20080;-89
2022/02/12 03:04:15;;;;;;;1.73;0.73;;;;;;;187.52;0.00;60892.56;4836361;28;20038;-90
2022/02/12 03:06:54;;;;;;;1.90;0.90;;;;;;;-145.06;0.00;60892.56;4837380;28;20547;-89
2022/02/12 03:09:33;;;;;;;1.23;0.93;;;;;;;-145.06;0.00;60892.56;4823864;28;20034;-89
2022/02/12 03:12:12;;;;;;;1.43;1.00;;;;;;;1.02;0.00;60892.56;4838622;28;20033;-89
2022/02/12 03:14:51;;;;;;;0.68;0.60;;;;;;;-145.06;0.00;60892.56;4837186;28;20624;-88
2022/02/12 03:17:31;;;;;;;3.70;1.00;;;;;;;-145.06;0.00;60892.56;4848905;28;20034;-89
2022/02/12 03:20:10;;;;;;;2.15;1.10;;;;;;;-145.06;0.00;60892.56;4819204;28;20046;-89
2022/02/12 03:22:49;;;;;;;3.50;0.88;;;;;;;187.52;0.00;60892.56;4855703;28;20037;-89
2022/02/12 03:25:28;;;;;;;1.37;0.87;;;;;;;187.52;0.00;60892.56;4861022;28;20030;-89
2022/02/12 03:28:07;;;;;;;1.27;0.88;;;;;;;-145.06;0.00;60892.56;4834758;28;20030;-90
2022/02/12 03:30:47;;;;;;;1.57;0.67;;;;;;;-145.06;0.00;60892.56;4851501;28;20373;-89
2022/02/12 03:33:26;;;;;;;2.50;0.90;;;;;;;-145.06;0.00;60892.56;4835069;28;20272;-88
2022/02/12 03:36:05;;;;;;;1.55;0.77;;;;;;;-145.06;0.00;60892.56;4840937;28;20381;-89
2022/02/12 03:38:48;;;;;;;2.15;0.70;;;;;;;-145.06;0.00;60892.56;4843769;28;20026;-89
2022/02/12 03:41:27;;;;;;;2.67;0.80;;;;;;;-145.06;0.00;60892.56;4846887;28;20033;-89
2022/02/12 03:44:06;;;;;;;2.05;0.90;;;;;;;-145.06;0.00;60892.56;4841672;28;20128;-88
2022/02/12 03:46:45;;;;;;;4.15;1.10;;;;;;;10.68;0.00;60892.56;4824268;28;20034;-89
2022/02/12 03:49:24;;;;;;;1.88;1.00;;;;;;;-145.06;0.00;60892.56;4830045;28;20026;-88
2022/02/12 03:52:03;;;;;;;1.85;0.70;;;;;;;-145.06;0.00;60892.56;4840168;28;20038;-87
2022/02/12 03:54:42;;;;;;;2.17;1.00;;;;;;;-145.06;0.00;60892.56;4841247;28;20034;-89
2022/02/12 03:57:20;;;;;;;2.15;0.95;;;;;;;-145.06;0.00;60892.56;4838291;28;20112;-88
2022/02/12 03:59:59;;;;;;;2.45;0.98;;;;;;;-145.06;0.00;60892.56;4839896;28;20029;-88
2022/02/12 04:02:39;;;;;;;1.27;1.03;;;;;;;-145.06;0.00;60892.56;4834461;28;20037;-88
2022/02/12 04:05:18;;;;;;;;;;;;;;;-145.06;0.00;60892.56;4830499;28;20256;-88
2022/02/12 04:07:58;;;;;;;1.10;0.73;;;;;;;-145.06;0.00;60892.56;4842761;28;19968;-88
2022/02/12 04:10:37;;;;;;;2.00;0.90;;;;;;;-145.06;0.00;60892.56;4847395;28;20030;-89
2022/02/12 04:13:19;;;;;;;1.75;0.85;;;;;;;-145.06;0.00;60892.56;4842919;28;20055;-89
2022/02/12 04:15:58;;;;;;;2.13;0.80;;;;;;;-145.06;0.00;60892.56;4860238;28;20033;-88
2022/02/12 04:18:37;;;;;;;1.27;0.90;;;;;;;-145.06;0.00;60892.56;4850337;28;20065;-89
2022/02/12 04:21:16;;;;;;;1.55;0.70;;;;;;;-145.06;0.00;60892.56;4835358;28;20396;-88
2022/02/12 04:23:55;;;;;;;1.60;0.80;;;;;;;-145.06;0.00;60892.56;4852919;28;20033;-88
2022/02/12 04:26:34;;;;;;;4.00;1.00;;;;;;;-145.06;0.00;60892.56;4835940;28;20112;-90
2022/02/12 04:29:13;;;;;;;0.70;0.57;;;;;;;-145.06;0.00;60892.56;4832023;28;20476;-88
2022/02/12 04:31:52;;;;;;;1.53;0.80;;;;;;;-145.06;0.00;60892.56;4844703;28;20826;-89
2022/02/12 04:34:31;;;;;;;2.10;0.75;;;;;;;-145.06;0.00;60892.56;4848670;28;20746;-89
2022/02/12 04:37:10;;;;;;;1.55;0.80;;;;;;;-145.06;0.00;60892.56;4834668;28;20069;-89
2022/02/12 04:39:49;;;;;;;1.35;0.60;;;;;;;-145.06;0.00;60892.56;4839273;28;20041;-90
2022/02/12 04:42:28;;;;;;;1.63;0.90;;;;;;;-145.06;0.00;60892.56;4852315;28;20041;-89
2022/02/12 04:45:07;;;;;;;2.37;0.97;;;;;;;-145.06;0.00;60892.56;4836684;28;20034;-90
2022/02/12 04:47:46;;;;;;;1.88;0.90;;;;;;;-145.06;0.00;60892.56;4854505;28;20280;-88
2022/02/12 04:50:25;;;;;;;0.90;0.80;;;;;;;-145.06;0.00;60892.56;4827783;28;20034;-89
2022/02/12 04:53:04;;;;;;;1.95;0.70;;;;;;;-145.06;0.00;60892.56;4831220;28;20038;-87
2022/02/12 04:55:43;;;;;;;1.00;0.75;;;;;;;-145.06;0.00;60892.56;4834628;28;20029;-89
2022/02/12 04:58:22;;;;;;;1.07;0.70;;;;;;;-145.06;0.00;60892.56;4834430;28;20034;-89
2022/02/12 05:01:01;;;;;;;1.83;0.77;;;;;;;-145.06;0.00;60892.56;4859633;28;20360;-88
2022/02/12 05:03:40;;;;;;;1.50;0.80;;;;;;;-145.06;0.00;60892.56;4838883;28;20033;-89
2022/02/12 05:06:20;;;;;;;1.83;1.00;;;;;;;-145.06;0.00;60892.56;4829750;28;20301;-89
2022/02/12 05:08:59;;;;;;;2.42;0.82;;;;;;;-145.06;0.00;60892.56;4836753;28;20038;-88
2022/02/12 05:11:38;;;;;;;5.03;1.30;;;;;;;-145.06;0.00;60892.56;4839841;28;20041;-88
2022/02/12 05:14:18;;;;;;;1.20;0.75;;;;;;;-145.06;0.00;60892.56;4836826;28;20069;-89
2022/02/12 05:17:01;;;;;;;0.88;0.70;;;;;;;-145.06;0.00;60892.56;4845407;28;20568;-89
2022/02/12 05:19:41;;;;;;;1.77;0.85;;;;;;;-145.06;0.00;60892.56;4836730;28;20104;-88
2022/02/12 05:22:20;;;;;;;1.80;0.80;;;;;;;-145.06;0.00;60892.56;4831566;28;20034;-90
2022/02/12 05:24:59;;;;;;;1.67;0.82;;;;;;;-145.06;0.00;60892.56;4833436;28;20053;-89
2022/02/12 05:27:38;;;;;;;1.05;0.73;;;;;;;-145.06;0.00;60892.56;4838099;28;20030;-89
2022/02/12 05:30:17;;;;;;;1.02;0.80;;;;;;;-145.06;0.00;60892.56;4833479;28;20030;-89
2022/02/12 05:32:58;;;;;;;0.68;0.57;;;;;;;-145.06;0.00;60892.56;4843479;28;20065;-88
2022/02/12 05:35:37;;;;;;;1.27;0.65;;;;;;;-145.06;0.00;60892.56;4829476;28;20472;-89
2022/02/12 05:38:16;;;;;;;1.53;0.73;;;;;;;-145.06;0.00;60892.56;4842751;28;20061;-88
2022/02/12 05:40:55;;;;;;;1.07;0.87;;;;;;;-145.06;0.00;60892.56;4838576;28;20053;-89
2022/02/12 05:43:34;;;;;;;1.73;0.90;;;;;;;-145.06;0.00;60892.56;4837277;28;20488;-89
2022/02/12 05:46:13;;;;;;;1.05;0.68;;;;;;;-145.06;0.00;60892.56;4832008;28;20261;-89
2022/02/12 05:48:51;;;;;;;2.20;0.87;;;;;;;-145.06;0.00;60892.56;4832725;28;20030;-89
2022/02/12 05:51:31;;;;;;;2.60;0.87;;;;;;;-145.06;0.00;60892.56;4855448;28;20304;-89
2022/02/12 05:54:10;;;;;;;1.35;0.70;;;;;;;-145.06;0.00;60892.56;4848980;28;20272;-89
2022/02/12 05:56:49;;;;;;;1.13;0.57;;;;;;;-145.06;0.00;60892.56;4852488;28;20027;-88
2022/02/12 05:59:28;;;;;;;2.30;0.90;;;;;;;-145.06;0.00;60892.56;4841275;28;20042;-88
2022/02/12 06:02:07;;;;;;;1.95;0.93;;;;;;;-145.06;0.00;60892.56;4839163;28;20272;-88
2022/02/12 06:04:46;;;;;;;0.93;0.80;;;;;;;-145.06;0.00;60892.56;4841336;28;20808;-89
2022/02/12 06:07:25;;;;;;;1.55;0.75;;;;;;;-145.06;0.00;60892.56;4837430;28;20382;-90
2022/02/12 06:10:04;;;;;;;1.63;0.60;;;;;;;-145.06;0.00;60892.56;4839549;28;20508;-88
2022/02/12 06:12:44;;;;;;;1.90;0.75;;;;;;;-145.06;0.00;60892.56;4852165;28;20029;-89
2022/02/12 06:15:23;;;;;;;0.95;0.80;;;;;;;-145.06;0.00;60892.56;4854371;28;20037;-88
2022/02/12 06:18:03;;;;;;;1.73;1.00;;;;;;;-145.06;0.00;60892.56;4849225;28;20113;-89
2022/02/12 06:20:42;;;;;;;1.40;0.82;;;;;;;-145.06;0.00;60892.56;4834975;28;20041;-88
2022/02/12 06:23:21;;;;;;;1.80;0.80;;;;;;;-145.06;0.00;60892.56;4831106;28;20149;-88
2022/02/12 06:26:00;;;;;;;1.95;0.70;;;;;;;-145.06;0.00;60892.56;4858199;28;20026;-89
2022/02/12 06:28:39;;;;;;;0.77;0.60;;;;;;;-145.06;0.00;60892.56;4834333;28;20038;-90
2022/02/12 06:31:18;;;;;;;0.98;0.80;;;;;;;-145.06;0.00;60892.56;4846236;28;20838;-88
2022/02/12 06:33:57;;;;;;;1.20;0.70;;;;;;;-145.06;0.00;60892.56;4856113;28;20030;-87
2022/02/12 06:36:36;;;;;;;1.30;0.85;;;;;;;-145.06;0.00;60892.56;4847350;28;20277;-89
2022/02/12 06:39:14;;;;;;;1.65;0.70;;;;;;;-145.06;0.00;60892.56;4837382;28;20042;-90
2022/02/12 06:41:54;;;;;;;2.13;0.90;;;;;;;-145.06;0.00;60892.56;4853154;28;20029;-89
2022/02/12 06:44:33;;;;;;;1.27;0.70;;;;;;;-145.06;0.00;60892.56;4837393;28;20061;-89
2022/02/12 06:47:12;;;;;;;2.33;0.90;;;;;;;-145.06;0.00;60892.56;4837475;28;20034;-88
2022/02/12 06:49:51;;;;;;;1.23;0.77;;;;;;;-145.06;0.00;60892.56;4854484;28;20519;-89
2022/02/12 06:52:30;;;;;;;0.97;0.70;;;;;;;-145.06;0.00;60892.56;4842743;28;20261;-89
2022/02/12 06:55:11;;;;;;;1.52;0.80;;;;;;;-145.06;0.00;60892.56;4840586;28;20065;-89
2022/02/12 06:57:50;;;;;;;0.65;0.60;;;;;;;-145.06;0.00;60892.56;4843691;28;20033;-89
2022/02/12 07:00:30;;;;;;;1.70;0.80;;;;;;;-145.06;0.00;60892.56;4840433;28;20033;-90
2022/02/12 07:03:09;;;;;;;0.95;0.90;;;;;;;-145.06;0.00;60892.56;4837000;28;20033;-88
2022/02/12 07:05:48;;;;;;;2.23;0.87;;;;;;;-145.06;0.00;60892.56;4844043;28;20038;-89
2022/02/12 07:08:27;;;;;;;1.00;0.90;;;;;;;-145.06;0.00;60892.56;4840998;28;20266;-89
2022/02/12 07:11:07;;;;;;;0.85;0.85;;;;;;;-145.06;0.00;60892.56;4829694;28;20779;-89
2022/02/12 07:13:46;;;;;;;2.28;1.00;;;;;;;-145.06;0.00;60892.56;4849506;28;20037;-88
2022/02/12 07:16:25;;;;;;;1.15;0.70;;;;;;;-145.06;0.00;60892.56;4838133;28;20052;-88
2022/02/12 07:19:03;;;;;;;1.75;1.00;;;;;;;-145.06;0.00;60892.56;4830323;28;20038;-89
2022/02/12 07:21:42;;;;;;;1.07;0.80;;;;;;;-145.06;0.00;60892.56;4831554;28;20027;-89
2022/02/12 07:24:21;;;;;;;3.50;1.20;;;;;;;-145.06;0.00;60892.56;4840205;28;20042;-91
2022/02/12 07:27:00;;;;;;;2.30;1.08;;;;;;;-145.06;0.00;60892.56;4826752;28;20113;-91
2022/02/12 07:29:39;;;;;;;1.90;1.10;;;;;;;-145.06;0.00;60892.56;4845955;28;20112;-90
2022/02/12 07:32:19;;;;;;;1.90;0.80;;;;;;;-145.06;0.00;60892.56;4834720;28;20285;-89
2022/02/12 07:34:58;;;;;;;1.98;1.00;;;;;;;-145.06;0.00;60892.56;4833289;28;20038;-90
2022/02/12 07:37:42;;;;;;;1.77;0.87;;;;;;;-145.06;0.00;60892.56;4837323;28;20061;-89
2022/02/12 07:40:21;;;;;;;3.03;0.80;;;;;;;-145.06;0.00;60892.56;4836838;28;20276;-90
2022/02/12 07:43:01;;;;;;;1.23;0.80;;;;;;;-145.06;0.00;60892.56;4857374;28;20033;-90
2022/02/12 07:45:40;;;;;;;2.45;1.17;;;;;;;-145.06;0.00;60892.56;4830031;28;20272;-90
2022/02/12 07:48:19;;;;;;;1.83;0.80;;;;;;;-145.06;0.00;60892.56;4834473;28;21685;-89
2022/02/12 07:50:58;;;;;;;1.33;0.80;;;;;;;-145.06;0.00;60892.56;4830954;28;20169;-89
2022/02/12 07:53:37;;;;;;;1.02;0.93;;;;;;;-145.06;0.00;60892.56;4837171;28;20038;-90
2022/02/12 07:56:16;;;;;;;2.17;1.10;;;;;;;-145.06;0.00;60892.56;4834057;28;20109;-90
2022/02/12 07:58:56;;;;;;;3.75;1.20;;;;;;;1.59;0.00;60892.56;4848778;28;20277;-89
2022/02/12 08:01:35;;;;;;;2.07;1.10;;;;;;;2.89;0.00;60892.56;4844258;28;20065;-90
2022/02/12 08:04:14;;;;;;;1.23;0.68;;;;;;;-145.06;0.00;60892.56;4829230;28;20038;-88
2022/02/12 08:09:50;;;;;;;1.50;0.90;;;;;;;1.42;0.00;60892.56;4834839;28;20065;-89
2022/02/12 08:12:29;;;;;;;1.47;1.10;;;;;;;-145.06;0.00;60892.56;4834405;28;20128;-89
2022/02/12 08:15:08;;;;;;;2.17;0.90;;;;;;;1.49;0.00;60892.56;4837526;28;20121;-89
2022/02/12 08:17:47;;;;;;;2.43;0.93;;;;;;;-145.06;0.00;60892.56;4833122;28;20109;-89
2022/02/12 08:20:26;;;;;;;1.73;1.00;;;;;;;-145.06;0.00;60892.56;4837988;28;20265;-89
2022/02/12 08:23:05;;;;;;;1.10;0.90;;;;;;;-145.06;0.00;60892.56;4837405;28;20033;-90
2022/02/12 08:25:45;;;;;;;1.63;0.87;;;;;;;-145.06;0.00;60892.56;4831626;28;20113;-88
2022/02/12 08:28:23;;;;;;;1.13;0.77;;;;;;;-145.06;0.00;60892.56;4835672;28;20381;-90
2022/02/12 08:31:03;;;;;;;2.38;1.08;;;;;;;-145.06;0.00;60892.56;4851408;28;20113;-88
2022/02/12 08:33:42;;;;;;;1.45;0.90;;;;;;;-145.06;0.00;60892.56;4849533;28;20026;-90
2022/02/12 08:36:21;;;;;;;2.97;1.13;;;;;;;-145.06;0.00;60892.56;4829742;28;20034;-87
2022/02/12 08:39:00;;;;;;;1.65;0.90;;;;;;;-145.06;0.00;60892.56;4837394;28;20033;-89
2022/02/12 08:41:39;;;;;;;1.23;0.77;;;;;;;-145.06;0.00;60892.56;4825291;28;20067;-89
2022/02/12 08:44:19;;;;;;;3.15;1.63;;;;;;;-145.06;0.00;60892.56;4833328;28;20038;-89
2022/02/12 08:46:58;;;;;;;2.67;1.30;;;;;;;-145.06;0.00;60892.56;4833294;28;20480;-89
2022/02/12 08:49:37;;;;;;;3.67;1.70;;;;;;;-145.06;0.00;60892.56;4826649;28;20856;-89
2022/02/12 08:52:15;;;;;;;3.65;1.63;;;;;;;-145.06;0.00;60892.56;4830423;28;20763;-88
2022/02/12 08:54:54;;;;;;;3.22;1.50;;;;;;;-145.06;0.00;60892.56;4837443;28;20432;-88
2022/02/12 08:57:33;;;;;;;3.75;1.60;;;;;;;21.08;0.00;60892.56;4836169;28;20045;-89
2022/02/12 09:00:13;;;;;;;2.25;1.30;;;;;;;-145.06;0.00;60892.56;4831420;28;20058;-87
2022/02/12 09:02:52;;;;;;;2.72;1.30;;;;;;;187.52;0.00;60892.56;4833418;28;20073;-89
2022/02/12 09:05:31;;;;;;;6.03;1.97;;;;;;;-145.06;0.00;60892.56;4833750;28;20049;-88
2022/02/12 09:08:13;;;;;;;4.80;1.97;;;;;;;-145.06;0.00;60892.56;4836005;28;20042;-89
2022/02/12 09:10:52;;;;;;;8.73;2.88;;;;;;;-145.06;0.00;60892.56;4863018;28;20037;-89
2022/02/12 09:13:32;;;;;;;7.17;3.33;;;;;;;-145.06;0.00;60892.56;4830775;28;20372;-89
2022/02/12 09:16:11;;;;;;;;;;;;;;;-145.06;0.00;60892.56;4838235;28;20117;-89
2022/02/12 09:18:53;;;;;;;8.43;3.70;;;;;;;-145.06;0.00;60892.56;4831558;28;19918;-88
2022/02/12 09:21:33;;;;;;;18.02;7.43;;;;;;;-145.06;0.00;60892.56;4832219;28;20289;-89
2022/02/12 09:24:12;;;;;;;22.73;8.75;;;;;;;-145.06;0.00;60892.56;4834192;28;20033;-88
2022/02/12 09:26:51;;;;;;;22.30;9.20;;;;;;;-145.06;0.00;60892.56;4833892;28;20026;-87
2022/02/12 09:29:30;;;;;;;23.10;9.93;;;;;;;-145.06;0.00;60892.56;4848795;28;20022;-90
2022/02/12 09:32:09;;;;;;;26.60;10.90;;;;;;;-145.06;0.00;60892.56;4842520;28;20034;-89
2022/02/12 09:34:48;;;;;;;23.65;9.45;;;;;;;-145.06;0.00;60892.56;4841622;28;20309;-88
2022/02/12 09:37:27;;;;;;;32.10;11.73;;;;;;;-145.06;0.00;60892.56;4853859;28;20038;-89
2022/02/12 09:40:06;;;;;;;33.42;11.20;;;;;;;-145.06;0.00;60892.56;4837210;28;20069;-89
2022/02/12 09:42:48;;;;;;;31.85;12.27;;;;;;;-145.06;0.00;60892.56;4842393;28;20073;-91
2022/02/12 09:45:35;;;;;;;35.40;13.30;;;;;;;-145.06;0.00;60892.56;4846799;28;20038;-89
2022/02/12 09:48:15;;;;;;;36.53;14.07;;;;;;;-145.06;0.00;60892.56;4838208;28;20030;-90
2022/02/12 09:50:58;;;;;;;38.67;15.13;;;;;;;-145.06;0.00;60892.56;4837703;28;20030;-90
2022/02/12 09:53:37;;;;;;;45.60;17.38;;;;;;;-145.06;0.00;60892.56;4834900;28;20026;-89
2022/02/12 09:56:17;;;;;;;45.07;18.03;;;;;;;-145.06;0.00;60892.56;4830598;28;20026;-90
2022/02/12 09:58:55;;;;;;;33.90;13.68;;;;;;;3.91;0.00;60892.56;4838112;28;20057;-87
2022/02/12 10:01:38;;;;;;;27.67;10.93;;;;;;;4.02;0.00;60892.56;4843145;28;20388;-89
2022/02/12 10:04:19;;;;;;;21.92;9.55;;;;;;;-145.06;0.00;60892.56;4838916;28;20488;-89
2022/02/12 10:06:59;;;;;;;15.05;7.22;;;;;;;4.25;0.00;60892.56;4842578;28;20069;-89
2022/02/12 10:09:38;;;;;;;;;;;;;;;-145.06;0.00;60892.56;4839377;28;20381;-88
2022/02/12 10:12:24;;;;;;;9.32;4.82;;;;;;;-145.06;0.00;60892.56;4834030;28;20447;-88
2022/02/12 10:15:04;;;;;;;7.28;3.72;;;;;;;-145.06;0.00;60892.56;4824320;28;20038;-88
2022/02/12 10:17:49;;;;;;;;;;;;;;;-145.06;0.00;60892.56;4850589;28;20030;-88
2022/02/12 10:20:32;;;;;;;8.13;2.85;;;;;;;-145.06;0.00;60892.56;4842089;28;19914;-89
2022/02/12 10:23:13;;;;;;;6.05;2.20;;;;;;;-145.06;0.00;60892.56;4836163;28;20030;-88
2022/02/12 10:26:01;;;;;;;4.05;1.63;;;;;;;-145.06;0.00;60892.56;4850758;28;20030;-88
2022/02/12 10:28:46;;;;;;;2.90;1.48;;;;;;;-145.06;0.00;60892.56;4846037;28;20372;-88
2022/02/12 10:31:28;;;;;;;2.13;1.35;;;;;;;5.18;0.00;60892.56;4836598;28;20435;-88
2022/02/12 10:34:06;;;;;;;3.25;1.52;;;;;;;-145.06;0.00;60892.56;4837284;28;20033;-89
2022/02/12 10:36:45;;;;;;;2.50;1.08;;;;;;;5.49;0.00;60892.56;4837604;28;20065;-88
2022/02/12 10:39:24;;;;;;;2.42;1.35;;;;;;;-145.06;0.00;60892.56;4840608;28;20025;-89
2022/02/12 10:42:07;;;;;;;1.73;1.03;;;;;;;-145.06;0.00;60892.56;4839211;28;20029;-89
2022/02/12 10:44:46;;;;;;;2.13;1.27;;;;;;;-145.06;0.00;60892.56;4848657;28;20432;-89
2022/02/12 10:47:25;;;;;;;2.20;1.20;;;;;;;-145.06;0.00;60892.56;4837064;28;20063;-88
2022/02/12 10:50:05;;;;;;;2.43;1.03;;;;;;;-145.06;0.00;60892.56;4839845;28;20066;-88
2022/02/12 10:52:50;;;;;;;2.75;1.30;;;;;;;-145.06;0.00;60892.56;4835351;28;20034;-88
2022/02/12 10:55:34;;;;;;;4.47;1.10;;;;;;;-145.06;0.00;60892.56;4840623;28;20037;-88
2022/02/12 10:58:16;;;;;;;2.83;1.02;;;;;;;-145.06;0.00;60892.56;4836121;28;20034;-89
2022/02/12 11:00:55;;;;;;;2.92;1.00;;;;;;;-145.06;0.00;60892.56;4833991;28;20041;-90
2022/02/12 11:03:34;;;;;;;4.50;1.30;;;;;;;7.44;0.00;60892.56;4826695;28;20050;-89
2022/02/12 11:06:14;;;;;;;3.58;0.85;;;;;;;-145.06;0.00;60892.56;4832223;28;20038;-88
2022/02/12 11:08:53;;;;;;;2.17;0.80;;;;;;;-145.06;0.00;60892.56;4832301;28;20029;-88
2022/02/12 11:11:33;;;;;;;2.22;0.73;;;;;;;-145.06;0.00;60892.56;4829913;28;20484;-89
2022/02/12 11:14:15;;;;;;;1.58;0.80;;;;;;;-145.06;0.00;60892.56;4845042;28;20033;-89
2022/02/12 11:16:54;;;;;;;1.90;1.00;;;;;;;-145.06;0.00;60892.56;4827914;28;20607;-88
2022/02/12 11:19:34;;;;;;;1.40;0.77;;;;;;;-145.06;0.00;60892.56;4844776;28;20034;-88
2022/02/12 11:22:13;;;;;;;2.83;1.08;;;;;;;8.08;0.00;60892.56;4827066;28;20038;-88
2022/02/12 11:24:52;;;;;;;1.67;0.80;;;;;;;-145.06;0.00;60892.56;4827203;28;20498;-87
2022/02/12 11:27:30;;;;;;;2.67;0.98;;;;;;;-145.06;0.00;60892.56;4822320;28;20026;-88
2022/02/12 11:30:12;;;;;;;1.73;0.90;;;;;;;-145.06;0.00;60892.56;4836376;28;20038;-89
2022/02/12 11:32:51;;;;;;;2.10;0.70;;;;;;;-145.06;0.00;60892.56;4844312;28;20033;-87
2022/02/12 11:35:30;;;;;;;2.30;0.80;;;;;;;-145.06;0.00;60892.56;4830795;28;20491;-88
2022/02/12 11:38:33;;;;;;;1.03;0.70;;;;;;;-145.06;0.00;60892.56;4831406;28;20496;-89
2022/02/12 11:41:26;;;;;;;1.75;0.63;;;;;;;-145.06;0.00;60892.56;4830322;28;20025;-88
2022/02/12 11:44:06;;;;;;;1.88;0.80;;;;;;;-145.06;0.00;60892.56;4842858;28;20038;-88
2022/02/12 11:46:51;;;;;;;1.98;0.68;;;;;;;-145.06;0.00;60892.56;4830897;28;20034;-88
2022/02/12 11:49:34;;;;;;;2.45;0.88;;;;;;;-145.06;0.00;60892.56;4832862;28;20038;-88
2022/02/12 11:52:16;;;;;;;1.63;0.70;;;;;;;-145.06;0.00;60892.56;4829905;28;20068;-87
2022/02/12 11:55:02;;;;;;;1.83;0.80;;;;;;;-145.06;0.00;60892.56;4840078;28;20069;-87
2022/02/12 11:57:42;;;;;;;1.60;1.23;;;;;;;-145.06;0.00;60892.56;4828713;28;20392;-87
2022/02/12 12:00:21;;;;;;;4.57;2.17;;;;;;;-145.06;0.00;60892.56;4830144;28;20642;-89
2022/02/12 12:03:05;;;;;;;4.43;1.90;;;;;;;-145.06;0.00;60892.56;4831620;28;20034;-88
2022/02/12 12:05:45;;;;;;;5.28;2.55;;;;;;;-145.06;0.00;60892.56;4831407;28;20057;-88
2022/02/12 12:08:24;;;;;;;;;;;;;;;-145.06;0.00;60892.56;4831733;28;20033;-88
2022/02/12 12:11:03;;;;;;;5.43;4.03;;;;;;;-145.06;0.00;60892.56;4830190;28;19917;-89
2022/02/12 12:13:43;;;;;;;5.30;3.00;;;;;;;-145.06;0.00;60892.56;4830585;28;20042;-88
2022/02/12 12:16:23;;;;;;;2.58;1.80;;;;;;;-145.06;0.00;60892.56;4844255;28;20034;-90
2022/02/12 12:19:03;;;;;;;1.80;1.30;;;;;;;9.55;0.00;60892.56;4845540;28;20428;-89
2022/02/12 12:21:42;;;;;;;1.92;0.80;;;;;;;-145.06;0.00;60892.56;4830982;28;20025;-88
2022/02/12 12:24:21;;;;;;;1.42;0.90;;;;;;;-145.06;0.00;60892.56;4832197;28;20046;-89
2022/02/12 12:27:00;;;;;;;2.72;0.60;;;;;;;-145.06;0.00;60892.56;4823119;28;20038;-88
2022/02/12 12:32:37;;;;;;;1.42;0.70;;;;;;;-145.06;0.00;60892.56;4838435;28;20029;-89
2022/02/12 12:35:17;;;;;;;1.85;0.70;;;;;;;-145.06;0.00;60892.56;4838866;28;20045;-88
2022/02/12 12:37:57;;;;;;;2.70;0.90;;;;;;;-145.06;0.00;60892.56;4843155;28;20026;-89
2022/02/12 12:40:36;;;;;;;1.58;0.70;;;;;;;-145.06;0.00;60892.56;4843597;28;20027;-89